sensor_id;sensor_type;location;lat;lon;timestamp;P1;durP1;ratioP1;P2;durP2;ratioP2
13801;SDS011;6972;51.518;6.918;2023-09-12T00:02:07;12.13;;;7.03;;
13801;SDS011;6972;51.518;6.918;2023-09-12T00:04:34;10.80;;;7.22;;
13801;SDS011;6972;51.518;6.918;2023-09-12T00:07:00;9.50;;;7.28;;
13801;SDS011;6972;51.518;6.918;2023-09-12T00:09:27;10.73;;;8.15;;
13801;SDS011;6972;51.518;6.918;2023-09-12T00:11:53;11.38;;;7.22;;
13801;SDS011;6972;51.518;6.918;2023-09-12T00:14:19;9.77;;;7.63;;
13801;SDS011;6972;51.518;6.918;2023-09-12T00:16:46;12.55;;;8.50;;
13801;SDS011;6972;51.518;6.918;2023-09-12T00:19:12;11.63;;;9.20;;
13801;SDS011;6972;51.518;6.918;2023-09-12T00:21:39;12.57;;;9.27;;
13801;SDS011;6972;51.518;6.918;2023-09-12T00:24:06;16.33;;;8.93;;
13801;SDS011;6972;51.518;6.918;2023-09-12T00:26:32;12.13;;;8.35;;
13801;SDS011;6972;51.518;6.918;2023-09-12T00:28:58;13.75;;;9.98;;
13801;SDS011;6972;51.518;6.918;2023-09-12T00:31:24;13.80;;;9.52;;
13801;SDS011;6972;51.518;6.918;2023-09-12T00:33:50;14.57;;;10.25;;
13801;SDS011;6972;51.518;6.918;2023-09-12T00:36:19;14.70;;;10.23;;
13801;SDS011;6972;51.518;6.918;2023-09-12T00:38:45;14.45;;;10.60;;
13801;SDS011;6972;51.518;6.918;2023-09-12T00:41:11;18.88;;;11.88;;
13801;SDS011;6972;51.518;6.918;2023-09-12T00:43:37;15.98;;;9.93;;
13801;SDS011;6972;51.518;6.918;2023-09-12T00:46:03;14.80;;;10.73;;
13801;SDS011;6972;51.518;6.918;2023-09-12T00:48:29;32.08;;;16.05;;
13801;SDS011;6972;51.518;6.918;2023-09-12T00:50:56;22.58;;;14.52;;
13801;SDS011;6972;51.518;6.918;2023-09-12T00:53:22;24.40;;;16.90;;
13801;SDS011;6972;51.518;6.918;2023-09-12T00:55:51;29.77;;;19.42;;
13801;SDS011;6972;51.518;6.918;2023-09-12T00:58:21;26.92;;;19.58;;
13801;SDS011;6972;51.518;6.918;2023-09-12T01:00:47;31.75;;;20.73;;
13801;SDS011;6972;51.518;6.918;2023-09-12T01:03:13;28.00;;;18.90;;
13801;SDS011;6972;51.518;6.918;2023-09-12T01:05:41;26.27;;;18.80;;
13801;SDS011;6972;51.518;6.918;2023-09-12T01:08:07;23.00;;;17.80;;
13801;SDS011;6972;51.518;6.918;2023-09-12T01:10:33;26.27;;;18.30;;
13801;SDS011;6972;51.518;6.918;2023-09-12T01:12:59;29.73;;;20.27;;
13801;SDS011;6972;51.518;6.918;2023-09-12T01:15:25;28.15;;;18.95;;
13801;SDS011;6972;51.518;6.918;2023-09-12T01:17:51;29.17;;;19.00;;
13801;SDS011;6972;51.518;6.918;2023-09-12T01:20:34;32.30;;;20.40;;
13801;SDS011;6972;51.518;6.918;2023-09-12T01:28:25;31.92;;;22.10;;
13801;SDS011;6972;51.518;6.918;2023-09-12T01:30:55;32.97;;;21.95;;
13801;SDS011;6972;51.518;6.918;2023-09-12T01:33:21;31.48;;;22.35;;
13801;SDS011;6972;51.518;6.918;2023-09-12T01:35:47;30.60;;;22.98;;
13801;SDS011;6972;51.518;6.918;2023-09-12T01:38:14;41.35;;;24.02;;
13801;SDS011;6972;51.518;6.918;2023-09-12T01:43:06;33.67;;;23.40;;
13801;SDS011;6972;51.518;6.918;2023-09-12T01:45:32;32.05;;;23.63;;
13801;SDS011;6972;51.518;6.918;2023-09-12T01:47:58;36.15;;;23.48;;
13801;SDS011;6972;51.518;6.918;2023-09-12T01:50:25;35.78;;;23.90;;
13801;SDS011;6972;51.518;6.918;2023-09-12T01:52:53;34.67;;;24.55;;
13801;SDS011;6972;51.518;6.918;2023-09-12T01:55:19;36.28;;;25.20;;
13801;SDS011;6972;51.518;6.918;2023-09-12T01:57:46;35.80;;;23.85;;
13801;SDS011;6972;51.518;6.918;2023-09-12T02:00:12;33.45;;;24.40;;
13801;SDS011;6972;51.518;6.918;2023-09-12T02:02:39;34.10;;;23.15;;
13801;SDS011;6972;51.518;6.918;2023-09-12T02:07:32;29.70;;;21.10;;
13801;SDS011;6972;51.518;6.918;2023-09-12T02:09:58;28.50;;;20.65;;
13801;SDS011;6972;51.518;6.918;2023-09-12T02:12:25;27.85;;;19.52;;
13801;SDS011;6972;51.518;6.918;2023-09-12T02:14:51;26.77;;;21.85;;
13801;SDS011;6972;51.518;6.918;2023-09-12T02:17:20;35.90;;;23.58;;
13801;SDS011;6972;51.518;6.918;2023-09-12T02:19:47;33.63;;;23.58;;
13801;SDS011;6972;51.518;6.918;2023-09-12T02:22:13;35.67;;;24.38;;
13801;SDS011;6972;51.518;6.918;2023-09-12T02:24:39;30.65;;;20.65;;
13801;SDS011;6972;51.518;6.918;2023-09-12T02:27:05;31.42;;;22.10;;
13801;SDS011;6972;51.518;6.918;2023-09-12T02:29:31;32.05;;;22.35;;
13801;SDS011;6972;51.518;6.918;2023-09-12T02:32:00;36.42;;;23.42;;
13801;SDS011;6972;51.518;6.918;2023-09-12T02:34:26;32.45;;;22.48;;
13801;SDS011;6972;51.518;6.918;2023-09-12T02:36:52;39.08;;;25.70;;
13801;SDS011;6972;51.518;6.918;2023-09-12T02:39:18;37.75;;;26.27;;
13801;SDS011;6972;51.518;6.918;2023-09-12T02:41:44;35.05;;;24.05;;
13801;SDS011;6972;51.518;6.918;2023-09-12T02:44:10;37.83;;;24.75;;
13801;SDS011;6972;51.518;6.918;2023-09-12T02:46:36;36.08;;;25.58;;
13801;SDS011;6972;51.518;6.918;2023-09-12T02:49:02;39.53;;;26.73;;
13801;SDS011;6972;51.518;6.918;2023-09-12T02:51:28;34.35;;;24.80;;
13801;SDS011;6972;51.518;6.918;2023-09-12T02:53:54;37.90;;;26.85;;
13801;SDS011;6972;51.518;6.918;2023-09-12T02:56:20;38.13;;;24.38;;
13801;SDS011;6972;51.518;6.918;2023-09-12T02:58:47;36.85;;;25.73;;
13801;SDS011;6972;51.518;6.918;2023-09-12T03:01:16;35.95;;;23.95;;
13801;SDS011;6972;51.518;6.918;2023-09-12T03:06:46;34.38;;;23.58;;
13801;SDS011;6972;51.518;6.918;2023-09-12T03:09:13;33.20;;;22.90;;
13801;SDS011;6972;51.518;6.918;2023-09-12T03:14:42;37.22;;;22.20;;
13801;SDS011;6972;51.518;6.918;2023-09-12T03:17:08;35.42;;;23.33;;
13801;SDS011;6972;51.518;6.918;2023-09-12T03:19:34;31.42;;;22.48;;
13801;SDS011;6972;51.518;6.918;2023-09-12T03:22:01;35.30;;;22.58;;
13801;SDS011;6972;51.518;6.918;2023-09-12T03:24:27;33.85;;;24.70;;
13801;SDS011;6972;51.518;6.918;2023-09-12T03:26:53;35.08;;;24.55;;
13801;SDS011;6972;51.518;6.918;2023-09-12T03:29:19;34.53;;;24.70;;
13801;SDS011;6972;51.518;6.918;2023-09-12T03:31:46;35.20;;;23.95;;
13801;SDS011;6972;51.518;6.918;2023-09-12T03:34:12;36.30;;;25.63;;
13801;SDS011;6972;51.518;6.918;2023-09-12T03:36:38;39.85;;;26.10;;
13801;SDS011;6972;51.518;6.918;2023-09-12T03:39:04;33.85;;;24.52;;
13801;SDS011;6972;51.518;6.918;2023-09-12T03:41:33;34.90;;;24.40;;
13801;SDS011;6972;51.518;6.918;2023-09-12T03:43:59;34.70;;;24.98;;
13801;SDS011;6972;51.518;6.918;2023-09-12T03:46:25;37.00;;;23.48;;
13801;SDS011;6972;51.518;6.918;2023-09-12T03:48:51;31.92;;;23.42;;
13801;SDS011;6972;51.518;6.918;2023-09-12T03:51:17;30.08;;;22.63;;
13801;SDS011;6972;51.518;6.918;2023-09-12T03:53:43;35.80;;;23.55;;
13801;SDS011;6972;51.518;6.918;2023-09-12T03:56:12;31.77;;;23.20;;
13801;SDS011;6972;51.518;6.918;2023-09-12T03:58:39;31.17;;;22.63;;
13801;SDS011;6972;51.518;6.918;2023-09-12T04:01:05;34.85;;;22.52;;
13801;SDS011;6972;51.518;6.918;2023-09-12T04:03:31;35.10;;;23.15;;
13801;SDS011;6972;51.518;6.918;2023-09-12T04:05:58;31.30;;;23.17;;
13801;SDS011;6972;51.518;6.918;2023-09-12T04:08:24;30.88;;;22.77;;
13801;SDS011;6972;51.518;6.918;2023-09-12T04:10:50;32.08;;;22.42;;
13801;SDS011;6972;51.518;6.918;2023-09-12T04:13:19;36.75;;;22.85;;
13801;SDS011;6972;51.518;6.918;2023-09-12T04:15:45;31.70;;;21.98;;
13801;SDS011;6972;51.518;6.918;2023-09-12T04:18:11;31.58;;;22.33;;
13801;SDS011;6972;51.518;6.918;2023-09-12T04:20:37;30.77;;;22.10;;
13801;SDS011;6972;51.518;6.918;2023-09-12T04:23:03;31.00;;;21.90;;
13801;SDS011;6972;51.518;6.918;2023-09-12T04:25:29;31.67;;;22.67;;
13801;SDS011;6972;51.518;6.918;2023-09-12T04:27:56;34.88;;;21.58;;
13801;SDS011;6972;51.518;6.918;2023-09-12T04:30:22;28.13;;;21.35;;
13801;SDS011;6972;51.518;6.918;2023-09-12T04:32:48;33.40;;;22.15;;
13801;SDS011;6972;51.518;6.918;2023-09-12T04:35:14;31.83;;;22.38;;
13801;SDS011;6972;51.518;6.918;2023-09-12T04:37:40;33.83;;;21.02;;
13801;SDS011;6972;51.518;6.918;2023-09-12T04:40:06;33.63;;;21.38;;
13801;SDS011;6972;51.518;6.918;2023-09-12T04:42:33;36.47;;;21.48;;
13801;SDS011;6972;51.518;6.918;2023-09-12T04:44:59;28.00;;;21.05;;
13801;SDS011;6972;51.518;6.918;2023-09-12T04:47:25;26.65;;;20.77;;
13801;SDS011;6972;51.518;6.918;2023-09-12T04:49:52;27.02;;;19.55;;
13801;SDS011;6972;51.518;6.918;2023-09-12T04:52:18;26.67;;;19.13;;
13801;SDS011;6972;51.518;6.918;2023-09-12T04:54:44;24.48;;;18.00;;
13801;SDS011;6972;51.518;6.918;2023-09-12T04:57:10;30.75;;;20.05;;
13801;SDS011;6972;51.518;6.918;2023-09-12T04:59:37;26.85;;;19.38;;
13801;SDS011;6972;51.518;6.918;2023-09-12T05:02:03;26.58;;;19.90;;
13801;SDS011;6972;51.518;6.918;2023-09-12T05:04:29;31.63;;;20.55;;
13801;SDS011;6972;51.518;6.918;2023-09-12T05:06:55;36.25;;;21.70;;
13801;SDS011;6972;51.518;6.918;2023-09-12T05:09:21;26.23;;;18.33;;
13801;SDS011;6972;51.518;6.918;2023-09-12T05:11:47;30.00;;;19.98;;
13801;SDS011;6972;51.518;6.918;2023-09-12T05:14:13;24.65;;;17.55;;
13801;SDS011;6972;51.518;6.918;2023-09-12T05:16:39;22.25;;;17.20;;
13801;SDS011;6972;51.518;6.918;2023-09-12T05:19:05;22.52;;;16.98;;
13801;SDS011;6972;51.518;6.918;2023-09-12T05:21:31;19.60;;;15.63;;
13801;SDS011;6972;51.518;6.918;2023-09-12T05:23:57;21.42;;;15.93;;
13801;SDS011;6972;51.518;6.918;2023-09-12T05:26:23;21.20;;;15.18;;
13801;SDS011;6972;51.518;6.918;2023-09-12T05:28:49;17.52;;;14.55;;
13801;SDS011;6972;51.518;6.918;2023-09-12T05:31:15;18.48;;;14.50;;
13801;SDS011;6972;51.518;6.918;2023-09-12T05:33:41;18.25;;;14.40;;
13801;SDS011;6972;51.518;6.918;2023-09-12T05:36:07;17.40;;;12.77;;
13801;SDS011;6972;51.518;6.918;2023-09-12T05:38:33;15.55;;;13.35;;
13801;SDS011;6972;51.518;6.918;2023-09-12T05:40:59;17.55;;;13.48;;
13801;SDS011;6972;51.518;6.918;2023-09-12T05:43:25;19.55;;;14.10;;
13801;SDS011;6972;51.518;6.918;2023-09-12T05:45:52;19.08;;;13.05;;
13801;SDS011;6972;51.518;6.918;2023-09-12T05:48:18;19.17;;;14.05;;
13801;SDS011;6972;51.518;6.918;2023-09-12T05:50:44;19.02;;;14.55;;
13801;SDS011;6972;51.518;6.918;2023-09-12T05:53:10;18.00;;;14.13;;
13801;SDS011;6972;51.518;6.918;2023-09-12T05:55:36;19.10;;;14.98;;
13801;SDS011;6972;51.518;6.918;2023-09-12T05:58:02;24.77;;;15.35;;
13801;SDS011;6972;51.518;6.918;2023-09-12T06:00:30;20.70;;;15.30;;
13801;SDS011;6972;51.518;6.918;2023-09-12T06:02:56;22.13;;;16.95;;
13801;SDS011;6972;51.518;6.918;2023-09-12T06:05:22;20.52;;;15.68;;
13801;SDS011;6972;51.518;6.918;2023-09-12T06:07:49;19.58;;;14.98;;
13801;SDS011;6972;51.518;6.918;2023-09-12T06:10:15;18.08;;;14.77;;
13801;SDS011;6972;51.518;6.918;2023-09-12T06:12:41;21.48;;;15.40;;
13801;SDS011;6972;51.518;6.918;2023-09-12T06:15:07;18.92;;;15.32;;
13801;SDS011;6972;51.518;6.918;2023-09-12T06:17:33;18.83;;;15.57;;
13801;SDS011;6972;51.518;6.918;2023-09-12T06:19:59;21.85;;;16.02;;
13801;SDS011;6972;51.518;6.918;2023-09-12T06:22:25;21.42;;;16.58;;
13801;SDS011;6972;51.518;6.918;2023-09-12T06:24:51;22.98;;;16.27;;
13801;SDS011;6972;51.518;6.918;2023-09-12T06:27:17;23.75;;;17.90;;
13801;SDS011;6972;51.518;6.918;2023-09-12T06:29:47;27.88;;;18.85;;
13801;SDS011;6972;51.518;6.918;2023-09-12T06:32:22;30.27;;;20.15;;
13801;SDS011;6972;51.518;6.918;2023-09-12T06:34:48;22.13;;;16.48;;
13801;SDS011;6972;51.518;6.918;2023-09-12T06:37:14;26.98;;;16.70;;
13801;SDS011;6972;51.518;6.918;2023-09-12T06:39:40;22.45;;;15.88;;
13801;SDS011;6972;51.518;6.918;2023-09-12T06:42:07;20.23;;;15.00;;
13801;SDS011;6972;51.518;6.918;2023-09-12T06:44:33;22.75;;;16.10;;
13801;SDS011;6972;51.518;6.918;2023-09-12T06:46:59;22.20;;;17.23;;
13801;SDS011;6972;51.518;6.918;2023-09-12T06:49:26;23.42;;;18.25;;
13801;SDS011;6972;51.518;6.918;2023-09-12T06:51:52;25.60;;;18.95;;
13801;SDS011;6972;51.518;6.918;2023-09-12T06:54:18;21.05;;;18.27;;
13801;SDS011;6972;51.518;6.918;2023-09-12T06:56:44;24.85;;;18.90;;
13801;SDS011;6972;51.518;6.918;2023-09-12T06:59:10;22.80;;;16.35;;
13801;SDS011;6972;51.518;6.918;2023-09-12T07:01:36;20.55;;;16.33;;
13801;SDS011;6972;51.518;6.918;2023-09-12T07:04:02;20.98;;;16.75;;
13801;SDS011;6972;51.518;6.918;2023-09-12T07:06:29;19.75;;;15.30;;
13801;SDS011;6972;51.518;6.918;2023-09-12T07:08:55;21.30;;;15.25;;
13801;SDS011;6972;51.518;6.918;2023-09-12T07:11:21;20.98;;;15.60;;
13801;SDS011;6972;51.518;6.918;2023-09-12T07:13:49;20.02;;;14.98;;
13801;SDS011;6972;51.518;6.918;2023-09-12T07:16:15;18.73;;;15.35;;
13801;SDS011;6972;51.518;6.918;2023-09-12T07:18:41;22.92;;;15.90;;
13801;SDS011;6972;51.518;6.918;2023-09-12T07:21:07;18.10;;;15.35;;
13801;SDS011;6972;51.518;6.918;2023-09-12T07:23:35;22.52;;;15.55;;
13801;SDS011;6972;51.518;6.918;2023-09-12T07:26:01;21.25;;;15.98;;
13801;SDS011;6972;51.518;6.918;2023-09-12T07:28:27;25.65;;;17.65;;
13801;SDS011;6972;51.518;6.918;2023-09-12T07:30:54;20.63;;;17.20;;
13801;SDS011;6972;51.518;6.918;2023-09-12T07:33:20;20.98;;;16.73;;
13801;SDS011;6972;51.518;6.918;2023-09-12T07:35:46;21.80;;;17.40;;
13801;SDS011;6972;51.518;6.918;2023-09-12T07:38:13;23.30;;;19.00;;
13801;SDS011;6972;51.518;6.918;2023-09-12T07:40:42;24.05;;;18.73;;
13801;SDS011;6972;51.518;6.918;2023-09-12T07:43:08;22.48;;;18.13;;
13801;SDS011;6972;51.518;6.918;2023-09-12T07:45:35;24.83;;;18.67;;
13801;SDS011;6972;51.518;6.918;2023-09-12T07:48:08;26.38;;;20.27;;
13801;SDS011;6972;51.518;6.918;2023-09-12T07:50:37;23.92;;;19.45;;
13801;SDS011;6972;51.518;6.918;2023-09-12T07:53:04;25.65;;;18.73;;
13801;SDS011;6972;51.518;6.918;2023-09-12T07:55:30;25.02;;;20.10;;
13801;SDS011;6972;51.518;6.918;2023-09-12T07:58:01;24.27;;;18.20;;
13801;SDS011;6972;51.518;6.918;2023-09-12T08:00:27;24.27;;;19.10;;
13801;SDS011;6972;51.518;6.918;2023-09-12T08:02:53;23.02;;;17.83;;
13801;SDS011;6972;51.518;6.918;2023-09-12T08:05:19;20.83;;;17.00;;
13801;SDS011;6972;51.518;6.918;2023-09-12T08:07:45;19.08;;;16.23;;
13801;SDS011;6972;51.518;6.918;2023-09-12T08:10:11;21.20;;;17.40;;
13801;SDS011;6972;51.518;6.918;2023-09-12T08:12:37;21.13;;;17.67;;
13801;SDS011;6972;51.518;6.918;2023-09-12T08:15:06;19.92;;;17.17;;
13801;SDS011;6972;51.518;6.918;2023-09-12T08:17:33;21.55;;;17.55;;
13801;SDS011;6972;51.518;6.918;2023-09-12T08:19:59;22.15;;;17.95;;
13801;SDS011;6972;51.518;6.918;2023-09-12T08:22:25;26.05;;;18.92;;
13801;SDS011;6972;51.518;6.918;2023-09-12T08:24:51;25.33;;;19.15;;
13801;SDS011;6972;51.518;6.918;2023-09-12T08:27:17;21.60;;;19.05;;
13801;SDS011;6972;51.518;6.918;2023-09-12T08:29:43;21.00;;;18.27;;
13801;SDS011;6972;51.518;6.918;2023-09-12T08:32:12;22.73;;;18.25;;
13801;SDS011;6972;51.518;6.918;2023-09-12T08:34:38;21.60;;;17.60;;
13801;SDS011;6972;51.518;6.918;2023-09-12T08:37:04;21.00;;;18.00;;
13801;SDS011;6972;51.518;6.918;2023-09-12T08:39:39;19.65;;;16.73;;
13801;SDS011;6972;51.518;6.918;2023-09-12T08:42:06;20.92;;;18.05;;
13801;SDS011;6972;51.518;6.918;2023-09-12T08:44:35;18.63;;;16.33;;
13801;SDS011;6972;51.518;6.918;2023-09-12T08:47:01;17.42;;;15.27;;
13801;SDS011;6972;51.518;6.918;2023-09-12T08:49:28;19.00;;;14.55;;
13801;SDS011;6972;51.518;6.918;2023-09-12T08:51:55;18.77;;;14.63;;
13801;SDS011;6972;51.518;6.918;2023-09-12T08:54:21;16.10;;;12.93;;
13801;SDS011;6972;51.518;6.918;2023-09-12T08:56:47;15.70;;;12.57;;
13801;SDS011;6972;51.518;6.918;2023-09-12T08:59:13;23.52;;;15.07;;
13801;SDS011;6972;51.518;6.918;2023-09-12T09:01:39;17.55;;;14.35;;
13801;SDS011;6972;51.518;6.918;2023-09-12T09:04:05;16.38;;;13.45;;
13801;SDS011;6972;51.518;6.918;2023-09-12T09:06:32;18.55;;;13.82;;
13801;SDS011;6972;51.518;6.918;2023-09-12T09:09:02;15.68;;;12.90;;
13801;SDS011;6972;51.518;6.918;2023-09-12T09:11:30;16.27;;;12.02;;
13801;SDS011;6972;51.518;6.918;2023-09-12T09:13:56;13.70;;;12.05;;
13801;SDS011;6972;51.518;6.918;2023-09-12T09:16:22;15.88;;;13.40;;
13801;SDS011;6972;51.518;6.918;2023-09-12T09:18:55;14.70;;;12.52;;
13801;SDS011;6972;51.518;6.918;2023-09-12T09:21:23;15.55;;;11.93;;
13801;SDS011;6972;51.518;6.918;2023-09-12T09:23:50;12.70;;;11.07;;
13801;SDS011;6972;51.518;6.918;2023-09-12T09:26:17;13.32;;;10.27;;
13801;SDS011;6972;51.518;6.918;2023-09-12T09:28:43;12.45;;;11.13;;
13801;SDS011;6972;51.518;6.918;2023-09-12T09:31:12;13.80;;;10.75;;
13801;SDS011;6972;51.518;6.918;2023-09-12T09:33:39;11.48;;;10.30;;
13801;SDS011;6972;51.518;6.918;2023-09-12T09:36:06;12.75;;;9.88;;
13801;SDS011;6972;51.518;6.918;2023-09-12T09:38:34;10.38;;;9.27;;
13801;SDS011;6972;51.518;6.918;2023-09-12T09:41:03;10.80;;;9.68;;
13801;SDS011;6972;51.518;6.918;2023-09-12T09:43:30;11.57;;;9.55;;
13801;SDS011;6972;51.518;6.918;2023-09-12T09:45:57;10.45;;;9.35;;
13801;SDS011;6972;51.518;6.918;2023-09-12T09:48:24;12.80;;;9.95;;
13801;SDS011;6972;51.518;6.918;2023-09-12T09:50:52;9.93;;;8.90;;
13801;SDS011;6972;51.518;6.918;2023-09-12T09:53:31;12.32;;;10.05;;
13801;SDS011;6972;51.518;6.918;2023-09-12T09:58:33;10.25;;;9.10;;
13801;SDS011;6972;51.518;6.918;2023-09-12T10:01:00;10.23;;;8.55;;
13801;SDS011;6972;51.518;6.918;2023-09-12T10:03:28;9.45;;;8.52;;
13801;SDS011;6972;51.518;6.918;2023-09-12T10:05:56;9.63;;;8.15;;
13801;SDS011;6972;51.518;6.918;2023-09-12T10:08:23;11.75;;;8.65;;
13801;SDS011;6972;51.518;6.918;2023-09-12T10:10:50;14.30;;;12.45;;
13801;SDS011;6972;51.518;6.918;2023-09-12T10:13:17;12.35;;;10.98;;
13801;SDS011;6972;51.518;6.918;2023-09-12T10:15:44;13.10;;;11.80;;
13801;SDS011;6972;51.518;6.918;2023-09-12T10:18:14;13.82;;;12.18;;
13801;SDS011;6972;51.518;6.918;2023-09-12T10:20:45;13.45;;;11.95;;
13801;SDS011;6972;51.518;6.918;2023-09-12T10:23:22;13.38;;;11.90;;
13801;SDS011;6972;51.518;6.918;2023-09-12T10:25:49;14.25;;;12.70;;
13801;SDS011;6972;51.518;6.918;2023-09-12T10:28:16;13.75;;;11.73;;
13801;SDS011;6972;51.518;6.918;2023-09-12T10:30:44;14.00;;;11.98;;
13801;SDS011;6972;51.518;6.918;2023-09-12T10:33:11;11.15;;;9.95;;
13801;SDS011;6972;51.518;6.918;2023-09-12T10:35:37;10.93;;;9.82;;
13801;SDS011;6972;51.518;6.918;2023-09-12T10:38:03;12.02;;;10.48;;
13801;SDS011;6972;51.518;6.918;2023-09-12T10:40:31;11.02;;;9.90;;
13801;SDS011;6972;51.518;6.918;2023-09-12T10:42:57;12.43;;;9.93;;
13801;SDS011;6972;51.518;6.918;2023-09-12T10:45:25;11.18;;;9.73;;
13801;SDS011;6972;51.518;6.918;2023-09-12T10:47:52;12.60;;;10.52;;
13801;SDS011;6972;51.518;6.918;2023-09-12T10:50:19;10.13;;;8.57;;
13801;SDS011;6972;51.518;6.918;2023-09-12T10:52:45;10.88;;;8.50;;
13801;SDS011;6972;51.518;6.918;2023-09-12T10:55:20;9.68;;;8.52;;
13801;SDS011;6972;51.518;6.918;2023-09-12T11:00:28;7.90;;;7.10;;
13801;SDS011;6972;51.518;6.918;2023-09-12T11:02:57;8.32;;;7.15;;
13801;SDS011;6972;51.518;6.918;2023-09-12T11:07:56;9.63;;;8.63;;
13801;SDS011;6972;51.518;6.918;2023-09-12T11:10:23;8.20;;;7.38;;
13801;SDS011;6972;51.518;6.918;2023-09-12T11:12:55;8.73;;;7.72;;
13801;SDS011;6972;51.518;6.918;2023-09-12T11:15:22;9.63;;;7.57;;
13801;SDS011;6972;51.518;6.918;2023-09-12T11:17:49;11.02;;;9.13;;
13801;SDS011;6972;51.518;6.918;2023-09-12T11:20:16;12.02;;;9.38;;
13801;SDS011;6972;51.518;6.918;2023-09-12T11:22:46;10.82;;;7.93;;
13801;SDS011;6972;51.518;6.918;2023-09-12T11:30:20;14.07;;;10.20;;
13801;SDS011;6972;51.518;6.918;2023-09-12T11:32:47;15.18;;;11.10;;
13801;SDS011;6972;51.518;6.918;2023-09-12T11:35:15;18.67;;;12.80;;
13801;SDS011;6972;51.518;6.918;2023-09-12T11:37:51;21.23;;;12.60;;
13801;SDS011;6972;51.518;6.918;2023-09-12T11:40:20;17.98;;;14.18;;
13801;SDS011;6972;51.518;6.918;2023-09-12T11:42:48;20.65;;;13.32;;
13801;SDS011;6972;51.518;6.918;2023-09-12T11:45:21;20.23;;;12.15;;
13801;SDS011;6972;51.518;6.918;2023-09-12T11:47:48;16.50;;;11.57;;
13801;SDS011;6972;51.518;6.918;2023-09-12T11:50:30;22.90;;;16.55;;
13801;SDS011;6972;51.518;6.918;2023-09-12T11:55:25;19.70;;;15.15;;
13801;SDS011;6972;51.518;6.918;2023-09-12T11:57:51;22.17;;;17.10;;
13801;SDS011;6972;51.518;6.918;2023-09-12T12:00:18;19.20;;;15.65;;
13801;SDS011;6972;51.518;6.918;2023-09-12T12:02:45;20.55;;;16.60;;
13801;SDS011;6972;51.518;6.918;2023-09-12T12:05:11;21.05;;;15.40;;
13801;SDS011;6972;51.518;6.918;2023-09-12T12:07:38;18.95;;;14.68;;
13801;SDS011;6972;51.518;6.918;2023-09-12T12:10:04;17.52;;;14.48;;
13801;SDS011;6972;51.518;6.918;2023-09-12T12:12:30;17.02;;;14.85;;
13801;SDS011;6972;51.518;6.918;2023-09-12T12:14:57;16.90;;;14.18;;
13801;SDS011;6972;51.518;6.918;2023-09-12T12:17:23;14.85;;;12.80;;
13801;SDS011;6972;51.518;6.918;2023-09-12T12:19:49;15.77;;;13.13;;
13801;SDS011;6972;51.518;6.918;2023-09-12T12:22:15;14.02;;;11.77;;
13801;SDS011;6972;51.518;6.918;2023-09-12T12:24:44;16.85;;;13.13;;
13801;SDS011;6972;51.518;6.918;2023-09-12T12:27:11;13.10;;;11.45;;
13801;SDS011;6972;51.518;6.918;2023-09-12T12:29:37;18.10;;;12.20;;
13801;SDS011;6972;51.518;6.918;2023-09-12T12:32:08;15.13;;;13.35;;
13801;SDS011;6972;51.518;6.918;2023-09-12T12:34:35;18.58;;;12.13;;
13801;SDS011;6972;51.518;6.918;2023-09-12T12:37:02;16.42;;;12.65;;
13801;SDS011;6972;51.518;6.918;2023-09-12T12:39:28;14.23;;;11.77;;
13801;SDS011;6972;51.518;6.918;2023-09-12T12:41:54;13.75;;;12.02;;
13801;SDS011;6972;51.518;6.918;2023-09-12T12:44:21;14.65;;;11.32;;
13801;SDS011;6972;51.518;6.918;2023-09-12T12:46:53;12.80;;;11.00;;
13801;SDS011;6972;51.518;6.918;2023-09-12T12:49:20;15.98;;;12.73;;
13801;SDS011;6972;51.518;6.918;2023-09-12T12:51:47;13.55;;;11.18;;
13801;SDS011;6972;51.518;6.918;2023-09-12T12:54:13;13.38;;;11.55;;
13801;SDS011;6972;51.518;6.918;2023-09-12T12:56:40;16.40;;;12.68;;
13801;SDS011;6972;51.518;6.918;2023-09-12T12:59:07;16.10;;;13.23;;
13801;SDS011;6972;51.518;6.918;2023-09-12T13:01:36;14.30;;;11.95;;
13801;SDS011;6972;51.518;6.918;2023-09-12T13:04:06;18.13;;;12.27;;
13801;SDS011;6972;51.518;6.918;2023-09-12T13:06:33;13.45;;;11.50;;
13801;SDS011;6972;51.518;6.918;2023-09-12T13:09:01;14.27;;;11.95;;
13801;SDS011;6972;51.518;6.918;2023-09-12T13:11:29;11.82;;;10.50;;
13801;SDS011;6972;51.518;6.918;2023-09-12T13:13:56;13.55;;;11.18;;
13801;SDS011;6972;51.518;6.918;2023-09-12T13:16:22;11.32;;;9.52;;
13801;SDS011;6972;51.518;6.918;2023-09-12T13:18:48;12.10;;;10.25;;
13801;SDS011;6972;51.518;6.918;2023-09-12T13:21:14;12.27;;;10.27;;
13801;SDS011;6972;51.518;6.918;2023-09-12T13:23:40;12.02;;;10.50;;
13801;SDS011;6972;51.518;6.918;2023-09-12T13:26:07;13.70;;;10.23;;
13801;SDS011;6972;51.518;6.918;2023-09-12T13:28:33;11.82;;;9.43;;
13801;SDS011;6972;51.518;6.918;2023-09-12T13:30:59;10.55;;;9.25;;
13801;SDS011;6972;51.518;6.918;2023-09-12T13:33:25;11.48;;;8.70;;
13801;SDS011;6972;51.518;6.918;2023-09-12T13:35:52;13.15;;;9.77;;
13801;SDS011;6972;51.518;6.918;2023-09-12T13:38:18;11.25;;;8.98;;
13801;SDS011;6972;51.518;6.918;2023-09-12T13:40:45;12.02;;;9.13;;
13801;SDS011;6972;51.518;6.918;2023-09-12T13:43:11;9.35;;;8.45;;
13801;SDS011;6972;51.518;6.918;2023-09-12T13:45:37;9.38;;;8.45;;
13801;SDS011;6972;51.518;6.918;2023-09-12T13:48:04;8.70;;;7.80;;
13801;SDS011;6972;51.518;6.918;2023-09-12T13:50:30;9.60;;;8.00;;
13801;SDS011;6972;51.518;6.918;2023-09-12T13:52:57;8.50;;;7.55;;
13801;SDS011;6972;51.518;6.918;2023-09-12T13:55:31;8.15;;;6.60;;
13801;SDS011;6972;51.518;6.918;2023-09-12T13:57:58;9.90;;;6.53;;
13801;SDS011;6972;51.518;6.918;2023-09-12T14:00:24;7.63;;;6.32;;
13801;SDS011;6972;51.518;6.918;2023-09-12T14:02:50;8.02;;;7.20;;
13801;SDS011;6972;51.518;6.918;2023-09-12T14:05:16;8.75;;;6.82;;
13801;SDS011;6972;51.518;6.918;2023-09-12T14:07:45;7.43;;;6.68;;
13801;SDS011;6972;51.518;6.918;2023-09-12T14:10:11;6.88;;;6.18;;
13801;SDS011;6972;51.518;6.918;2023-09-12T14:12:37;7.55;;;5.80;;
13801;SDS011;6972;51.518;6.918;2023-09-12T14:15:03;7.45;;;6.15;;
13801;SDS011;6972;51.518;6.918;2023-09-12T14:17:31;8.65;;;6.35;;
13801;SDS011;6972;51.518;6.918;2023-09-12T14:19:57;8.52;;;6.10;;
13801;SDS011;6972;51.518;6.918;2023-09-12T14:22:23;7.13;;;6.22;;
13801;SDS011;6972;51.518;6.918;2023-09-12T14:24:49;8.65;;;6.10;;
13801;SDS011;6972;51.518;6.918;2023-09-12T14:27:15;8.25;;;7.20;;
13801;SDS011;6972;51.518;6.918;2023-09-12T14:29:44;11.48;;;7.13;;
13801;SDS011;6972;51.518;6.918;2023-09-12T14:32:13;6.75;;;5.85;;
13801;SDS011;6972;51.518;6.918;2023-09-12T14:34:39;9.98;;;7.38;;
13801;SDS011;6972;51.518;6.918;2023-09-12T14:37:05;9.20;;;6.47;;
13801;SDS011;6972;51.518;6.918;2023-09-12T14:39:31;6.40;;;5.72;;
13801;SDS011;6972;51.518;6.918;2023-09-12T14:41:57;6.38;;;5.35;;
13801;SDS011;6972;51.518;6.918;2023-09-12T14:44:25;7.03;;;5.22;;
13801;SDS011;6972;51.518;6.918;2023-09-12T14:46:52;10.07;;;4.82;;
13801;SDS011;6972;51.518;6.918;2023-09-12T14:49:18;8.40;;;5.43;;
13801;SDS011;6972;51.518;6.918;2023-09-12T14:51:44;7.18;;;5.38;;
13801;SDS011;6972;51.518;6.918;2023-09-12T14:54:10;6.75;;;5.57;;
13801;SDS011;6972;51.518;6.918;2023-09-12T14:56:36;6.50;;;4.90;;
13801;SDS011;6972;51.518;6.918;2023-09-12T14:59:03;5.22;;;4.72;;
13801;SDS011;6972;51.518;6.918;2023-09-12T15:01:29;4.15;;;3.78;;
13801;SDS011;6972;51.518;6.918;2023-09-12T15:03:55;5.28;;;4.00;;
13801;SDS011;6972;51.518;6.918;2023-09-12T15:06:22;4.30;;;3.90;;
13801;SDS011;6972;51.518;6.918;2023-09-12T15:08:49;5.50;;;3.75;;